Time;durP1;ratioP1;P1;durP2;ratioP2;P2;SDS_P1;SDS_P2;PMS_P1;PMS_P2;Temp;Humidity;BMP_temperature;BMP_pressure;BME280_temperature;BME280_humidity;BME280_pressure;Samples;Min_cycle;Max_cycle;Signal;HPM_P1;HPM_P2
2022/08/04 00:00:28;;;;;;;6.07;2.70;;;25.10;76.70;;;;;;5066418;28;20524;-41
2022/08/04 00:03:16;;;;;;;3.58;2.33;;;25.00;76.70;;;;;;5067596;28;20235;-41
2022/08/04 00:05:56;;;;;;;10.10;2.80;;;25.00;76.70;;;;;;5068150;28;20653;-41
2022/08/04 00:08:34;;;;;;;3.60;2.83;;;25.00;76.70;;;;;;5067981;28;20303;-38
2022/08/04 00:11:03;;;;;;;2.70;2.50;;;25.00;76.60;;;;;;5064249;28;20208;-41
2022/08/04 00:13:36;;;;;;;2.20;2.00;;;24.90;76.50;;;;;;5063418;28;20275;-39
2022/08/04 00:16:06;;;;;;;3.13;2.00;;;24.90;76.60;;;;;;5067495;28;21681;-38
2022/08/04 00:18:39;;;;;;;2.35;1.95;;;24.90;76.70;;;;;;5068075;28;20645;-41
2022/08/04 00:21:07;;;;;;;3.83;2.42;;;24.90;76.70;;;;;;5065001;28;20282;-40
2022/08/04 00:23:35;;;;;;;3.05;2.00;;;24.80;76.60;;;;;;5063001;28;20258;-39
2022/08/04 00:26:03;;;;;;;4.00;1.90;;;24.80;77.40;;;;;;5067667;28;20630;-38
2022/08/04 00:28:31;;;;;;;2.58;2.35;;;24.80;76.60;;;;;;5063244;28;20557;-38
2022/08/04 00:30:58;;;;;;;4.00;2.30;;;24.80;76.60;;;;;;5068607;28;20197;-42
2022/08/04 00:33:25;;;;;;;7.20;2.88;;;24.80;76.60;;;;;;5065425;28;20226;-42
2022/08/04 00:35:53;;;;;;;2.45;2.22;;;24.70;76.50;;;;;;5067485;28;20213;-39
2022/08/04 00:38:20;;;;;;;2.50;2.08;;;24.70;76.60;;;;;;5063899;28;20270;-39
2022/08/04 00:40:58;;;;;;;3.38;1.90;;;24.70;76.60;;;;;;5064485;28;20193;-38
2022/08/04 00:43:32;;;;;;;4.20;2.45;;;24.70;76.60;;;;;;5061940;28;20292;-38
2022/08/04 00:46:22;;;;;;;3.25;2.15;;;24.70;76.50;;;;;;5071253;28;20214;-40
2022/08/04 00:49:16;;;;;;;2.00;1.90;;;24.70;76.50;;;;;;5063937;28;20182;-41
2022/08/04 00:51:49;;;;;;;2.60;2.17;;;24.70;76.60;;;;;;5065549;28;20220;-42
2022/08/04 00:54:26;;;;;;;1.80;1.70;;;24.70;76.60;;;;;;5062248;28;20588;-39
2022/08/04 00:57:28;;;;;;;1.95;1.83;;;24.60;76.60;;;;;;5065016;28;20276;-38
2022/08/04 01:00:07;;;;;;;1.52;1.27;;;24.60;76.70;;;;;;5032532;28;20518;-45
2022/08/04 01:02:48;;;;;;;1.85;1.75;;;24.50;76.60;;;;;;5065766;28;20753;-40
2022/08/04 01:05:20;;;;;;;2.38;2.17;;;24.60;76.80;;;;;;5060896;28;20696;-40
2022/08/04 01:08:06;;;;;;;4.72;2.90;;;24.50;76.80;;;;;;5066497;28;20274;-39
2022/08/04 01:10:47;;;;;;;3.63;2.30;;;24.50;76.80;;;;;;5066749;28;20185;-40
2022/08/04 01:13:36;;;;;;;3.80;2.30;;;24.50;76.80;;;;;;5058480;28;20633;-38
2022/08/04 01:16:06;;;;;;;3.33;2.58;;;24.50;76.90;;;;;;5063262;28;20201;-38
2022/08/04 01:18:49;;;;;;;4.03;2.30;;;24.50;76.90;;;;;;5061219;28;20221;-46
2022/08/04 01:21:50;;;;;;;7.55;2.83;;;24.50;76.90;;;;;;5063361;28;20190;-44
2022/08/04 01:24:34;;;;;;;7.07;3.45;;;24.50;76.90;;;;;;5066242;28;20226;-46
2022/08/04 01:27:03;;;;;;;9.23;2.75;;;24.40;76.80;;;;;;5070195;28;20272;-48
2022/08/04 01:29:37;;;;;;;3.90;2.45;;;24.40;76.80;;;;;;5062667;28;20689;-46
2022/08/04 01:32:07;;;;;;;2.38;2.13;;;24.40;76.90;;;;;;5066181;28;20224;-45
2022/08/04 01:34:39;;;;;;;2.83;2.03;;;24.40;76.90;;;;;;5062828;28;20302;-46
2022/08/04 01:37:17;;;;;;;2.55;2.05;;;24.40;76.90;;;;;;5067336;28;20196;-46
2022/08/04 01:40:00;;;;;;;2.55;1.80;;;24.30;76.90;;;;;;5065016;28;20315;-46
2022/08/04 01:42:30;;;;;;;1.80;1.70;;;24.30;77.00;;;;;;5062750;28;20296;-46
2022/08/04 01:45:00;;;;;;;1.48;1.40;;;24.30;77.10;;;;;;5063395;28;20670;-44
2022/08/04 01:47:29;;;;;;;2.83;1.67;;;24.30;77.10;;;;;;5069609;28;20582;-44
2022/08/04 01:50:05;;;;;;;1.92;1.80;;;24.30;77.20;;;;;;5069531;28;20552;-48
2022/08/04 01:52:33;;;;;;;2.38;1.58;;;24.30;77.30;;;;;;5068954;28;20192;-42
2022/08/04 01:55:03;;;;;;;4.38;2.05;;;24.30;77.40;;;;;;5070027;28;20305;-46
2022/08/04 01:57:32;;;;;;;2.97;2.42;;;24.30;77.50;;;;;;5071279;28;20193;-45
2022/08/04 02:00:02;;;;;;;2.63;2.42;;;24.20;77.40;;;;;;5065771;28;20294;-46
2022/08/04 02:02:31;;;;;;;3.80;2.30;;;24.20;77.50;;;;;;5067554;28;20197;-42
2022/08/04 02:04:58;;;;;;;3.53;2.60;;;24.20;77.40;;;;;;5067219;28;20203;-41
2022/08/04 02:07:38;;;;;;;3.00;2.70;;;24.20;77.40;;;;;;5068526;28;20745;-44
2022/08/04 02:10:08;;;;;;;4.18;2.25;;;24.20;77.50;;;;;;5064109;28;20208;-46
2022/08/04 02:12:51;;;;;;;2.92;2.63;;;24.10;77.60;;;;;;5065442;28;20201;-40
2022/08/04 02:15:27;;;;;;;2.45;2.28;;;24.10;77.60;;;;;;5066820;28;20197;-47
2022/08/04 02:18:02;;;;;;;2.00;1.90;;;24.00;77.60;;;;;;5068277;28;20230;-45
2022/08/04 02:20:34;;;;;;;1.65;1.55;;;24.00;77.60;;;;;;5066083;28;20242;-43
2022/08/04 02:23:03;;;;;;;1.92;1.83;;;24.00;77.70;;;;;;5068531;28;20592;-45
2022/08/04 02:25:34;;;;;;;4.07;2.65;;;24.00;77.80;;;;;;5068254;28;20269;-45
2022/08/04 02:28:15;;;;;;;2.92;2.45;;;24.00;78.10;;;;;;5064531;28;20197;-40
2022/08/04 02:30:57;;;;;;;1.80;1.70;;;24.00;78.10;;;;;;5068550;28;20201;-48
2022/08/04 02:33:30;;;;;;;2.65;1.80;;;23.90;78.00;;;;;;5066979;28;20280;-42
2022/08/04 02:36:01;;;;;;;2.25;1.95;;;23.90;78.00;;;;;;5068489;28;20288;-42
2022/08/04 02:38:47;;;;;;;3.45;2.10;;;23.90;78.10;;;;;;5066084;28;20189;-38
2022/08/04 02:41:16;;;;;;;4.50;1.90;;;23.90;78.20;;;;;;5064245;28;20289;-38
2022/08/04 02:43:47;;;;;;;2.78;1.90;;;23.90;79.00;;;;;;5066035;28;20525;-38
2022/08/04 02:46:17;;;;;;;2.45;2.13;;;23.80;78.10;;;;;;5067157;28;20200;-39
2022/08/04 02:48:46;;;;;;;2.22;2.08;;;23.80;78.10;;;;;;5069901;28;20272;-39
2022/08/04 02:51:15;;;;;;;1.92;1.60;;;23.80;78.10;;;;;;5067821;28;20198;-39
2022/08/04 02:53:43;;;;;;;2.65;1.92;;;23.80;78.10;;;;;;5067630;28;20209;-39
2022/08/04 02:56:15;;;;;;;3.03;1.90;;;23.70;78.20;;;;;;5067988;28;20282;-38
2022/08/04 02:58:46;;;;;;;3.78;2.53;;;23.70;78.30;;;;;;5067394;28;20275;-39
2022/08/04 03:01:14;;;;;;;4.20;2.70;;;23.60;78.20;;;;;;5063390;28;20206;-46
2022/08/04 03:03:51;;;;;;;2.70;2.47;;;23.60;78.90;;;;;;5068104;28;20224;-46
2022/08/04 03:07:03;;;;;;;3.08;2.80;;;23.60;78.20;;;;;;5100221;28;20657;-48
2022/08/04 03:10:14;;;;;;;2.85;2.38;;;23.60;78.20;;;;;;5000246;28;20321;-48
2022/08/04 03:13:19;;;;;;;7.65;2.72;;;23.60;78.30;;;;;;5066110;28;20220;-40
2022/08/04 03:16:03;;;;;;;3.33;2.20;;;23.50;78.30;;;;;;5045170;28;20763;-40
2022/08/04 03:19:22;;;;;;;3.92;2.40;;;23.50;78.50;;;;;;5065408;28;20193;-45
2022/08/04 03:22:28;;;;;;;4.38;2.40;;;23.40;78.50;;;;;;5064753;28;20181;-39
2022/08/04 03:25:24;;;;;;;3.40;2.20;;;23.40;78.60;;;;;;5043367;28;20251;-40
2022/08/04 03:28:35;;;;;;;2.90;2.10;;;23.40;78.70;;;;;;5063792;28;20204;-39
2022/08/04 03:31:37;;;;;;;2.85;2.42;;;23.40;78.80;;;;;;5068236;28;20211;-39
2022/08/04 03:34:25;;;;;;;2.63;2.35;;;23.30;78.70;;;;;;5051958;28;20261;-38
2022/08/04 03:37:21;;;;;;;2.63;2.40;;;23.30;78.90;;;;;;5065793;28;20212;-40
2022/08/04 03:40:17;;;;;;;2.55;2.33;;;23.30;79.00;;;;;;5055174;28;20237;-38
2022/08/04 03:43:29;;;;;;;4.70;2.83;;;23.30;79.00;;;;;;5065352;28;20201;-39
2022/08/04 03:46:32;;;;;;;4.65;2.92;;;23.30;79.10;;;;;;5066624;28;20190;-39
2022/08/04 03:49:33;;;;;;;3.85;2.70;;;23.30;79.10;;;;;;5067117;28;20661;-39
2022/08/04 03:55:23;;;;;;;3.67;2.15;;;23.30;79.30;;;;;;5046701;28;20204;-38
2022/08/04 03:58:20;;;;;;;1.80;1.70;;;23.20;79.20;;;;;;5063477;28;20244;-38
2022/08/04 04:00:59;;;;;;;2.30;1.85;;;23.20;79.30;;;;;;5038446;28;20233;-38
2022/08/04 04:03:49;;;;;;;2.20;2.00;;;23.20;79.30;;;;;;5063063;28;20193;-42
2022/08/04 04:06:46;;;;;;;4.18;2.40;;;23.20;79.40;;;;;;5064107;28;20239;-38
2022/08/04 04:09:52;;;;;;;3.28;2.70;;;23.20;79.50;;;;;;5064978;28;20286;-38
2022/08/04 04:12:54;;;;;;;3.15;2.60;;;23.20;79.50;;;;;;5062948;28;20201;-42
2022/08/04 04:15:44;;;;;;;3.47;2.55;;;23.20;79.60;;;;;;5065246;28;20263;-39
2022/08/04 04:18:25;;;;;;;6.55;2.60;;;23.20;79.60;;;;;;5065973;28;20197;-39
2022/08/04 04:21:27;;;;;;;3.05;2.50;;;23.10;79.50;;;;;;5065935;28;20664;-39
2022/08/04 04:24:29;;;;;;;4.35;2.70;;;23.10;79.60;;;;;;5066492;28;20692;-38
2022/08/04 04:27:03;;;;;;;3.05;2.70;;;23.10;79.70;;;;;;5066632;28;20193;-38
2022/08/04 04:29:49;;;;;;;3.10;2.72;;;23.10;79.90;;;;;;5062412;28;20200;-39
2022/08/04 04:32:27;;;;;;;2.78;2.42;;;23.10;80.00;;;;;;5064685;28;20262;-38
2022/08/04 04:35:10;;;;;;;2.53;2.20;;;23.00;80.00;;;;;;5066468;28;20194;-39
2022/08/04 04:37:51;;;;;;;2.88;2.58;;;23.10;80.30;;;;;;5067265;28;20274;-38
2022/08/04 04:40:29;;;;;;;2.50;2.30;;;23.10;80.40;;;;;;5066765;28;20217;-39
2022/08/04 04:43:19;;;;;;;2.85;2.65;;;23.10;80.40;;;;;;5063648;28;20192;-40
2022/08/04 04:45:53;;;;;;;2.83;2.63;;;23.10;80.60;;;;;;5066397;28;20189;-38
2022/08/04 04:48:33;;;;;;;3.05;2.40;;;23.10;80.70;;;;;;5063941;28;20729;-39
2022/08/04 04:51:10;;;;;;;2.85;2.40;;;23.20;80.90;;;;;;5066370;28;20181;-39
2022/08/04 04:53:49;;;;;;;2.88;2.42;;;23.20;81.00;;;;;;5064880;28;20197;-40
2022/08/04 04:56:24;;;;;;;4.95;2.42;;;23.20;81.20;;;;;;5067444;28;20250;-38
2022/08/04 04:58:54;;;;;;;2.72;2.50;;;23.20;81.40;;;;;;5065384;28;20203;-42
2022/08/04 05:01:56;;;;;;;3.25;2.60;;;23.20;81.50;;;;;;5068808;28;20186;-40
2022/08/04 05:04:51;;;;;;;3.50;2.83;;;23.30;81.80;;;;;;5066402;28;20279;-38
2022/08/04 05:07:52;;;;;;;3.35;2.95;;;23.30;81.90;;;;;;5067818;28;20197;-40
2022/08/04 05:10:33;;;;;;;4.00;2.88;;;23.30;82.10;;;;;;5065709;28;20205;-44
2022/08/04 05:13:19;;;;;;;3.60;3.15;;;23.30;83.10;;;;;;5064816;28;20593;-43
2022/08/04 05:15:49;;;;;;;2.72;2.53;;;23.30;82.60;;;;;;5069027;28;20564;-40
2022/08/04 05:18:22;;;;;;;3.05;2.83;;;23.30;82.70;;;;;;5069819;28;20226;-39
2022/08/04 05:20:55;;;;;;;2.53;2.33;;;23.40;83.10;;;;;;5067538;28;20266;-41
2022/08/04 05:23:26;;;;;;;2.58;2.20;;;23.40;83.20;;;;;;5067940;28;20327;-39
2022/08/04 05:25:57;;;;;;;2.45;2.25;;;23.50;83.30;;;;;;5068971;28;20193;-38
2022/08/04 05:28:28;;;;;;;2.50;2.30;;;23.50;83.40;;;;;;5064896;28;20299;-40
2022/08/04 05:31:01;;;;;;;2.70;2.50;;;23.60;83.60;;;;;;5069613;28;20296;-41
2022/08/04 05:33:33;;;;;;;2.65;2.45;;;23.60;83.90;;;;;;5068962;28;20221;-39
2022/08/04 05:36:07;;;;;;;2.47;2.38;;;23.60;84.00;;;;;;5068766;28;20208;-42
2022/08/04 05:38:37;;;;;;;3.00;2.22;;;23.70;84.90;;;;;;5065109;28;20228;-40
2022/08/04 05:41:05;;;;;;;2.10;2.00;;;23.80;84.30;;;;;;5069130;28;20193;-42
2022/08/04 05:43:33;;;;;;;2.83;2.63;;;23.80;84.30;;;;;;5062514;28;20271;-39
2022/08/04 05:46:01;;;;;;;6.38;3.00;;;23.80;84.50;;;;;;5070370;28;20224;-40
2022/08/04 05:48:30;;;;;;;3.35;3.05;;;23.80;84.80;;;;;;5071044;28;20193;-38
2022/08/04 05:50:57;;;;;;;2.88;2.67;;;23.80;85.00;;;;;;5069169;28;20281;-40
2022/08/04 05:53:27;;;;;;;5.75;3.03;;;23.90;86.00;;;;;;5069690;28;20213;-40
2022/08/04 05:55:55;;;;;;;5.85;3.08;;;24.00;85.60;;;;;;5071203;28;20229;-39
2022/08/04 05:58:22;;;;;;;5.40;3.35;;;24.00;85.90;;;;;;5065950;28;20229;-40
2022/08/04 06:00:51;;;;;;;3.35;3.13;;;24.00;86.20;;;;;;5070141;28;20189;-40
2022/08/04 06:03:21;;;;;;;6.00;3.50;;;24.00;86.30;;;;;;5067860;28;20649;-45
2022/08/04 06:05:49;;;;;;;3.83;3.40;;;24.00;86.30;;;;;;5068845;28;20248;-38
2022/08/04 06:08:17;;;;;;;4.05;3.40;;;24.10;86.50;;;;;;5067792;28;20250;-40
2022/08/04 06:10:48;;;;;;;4.95;3.42;;;24.10;86.60;;;;;;5067146;28;20608;-41
2022/08/04 06:13:20;;;;;;;4.03;3.63;;;24.10;87.70;;;;;;5067426;28;20194;-41
2022/08/04 06:15:50;;;;;;;4.43;3.42;;;24.20;87.10;;;;;;5067527;28;20196;-42
2022/08/04 06:18:19;;;;;;;8.80;3.70;;;24.20;87.30;;;;;;5069259;28;20189;-45
2022/08/04 06:20:50;;;;;;;4.10;3.25;;;24.20;87.20;;;;;;5067498;28;20193;-42
2022/08/04 06:23:20;;;;;;;10.38;4.20;;;24.30;87.70;;;;;;5068917;28;20229;-44
2022/08/04 06:25:52;;;;;;;4.47;3.40;;;24.40;87.90;;;;;;5069331;28;20192;-42
2022/08/04 06:28:20;;;;;;;4.05;3.28;;;24.50;87.90;;;;;;5066093;28;20306;-40
2022/08/04 06:30:49;;;;;;;3.60;3.30;;;24.50;88.00;;;;;;5065739;28;20266;-40
2022/08/04 06:33:26;;;;;;;4.50;3.35;;;24.50;88.10;;;;;;5066793;28;20186;-46
2022/08/04 06:35:55;;;;;;;2.72;2.50;;;24.60;88.10;;;;;;5066912;28;20743;-45
2022/08/04 06:38:22;;;;;;;3.42;3.22;;;24.60;87.90;;;;;;5062454;28;20209;-47
2022/08/04 06:40:52;;;;;;;4.22;2.60;;;24.70;88.00;;;;;;5065021;28;20620;-44
2022/08/04 06:43:20;;;;;;;5.95;3.30;;;24.70;87.80;;;;;;5065876;28;20292;-42
2022/08/04 06:45:48;;;;;;;4.30;3.75;;;24.80;88.10;;;;;;5069911;28;20221;-46
2022/08/04 06:48:18;;;;;;;9.20;4.10;;;24.90;88.20;;;;;;5066406;28;20193;-41
2022/08/04 06:50:47;;;;;;;9.85;4.10;;;24.90;88.40;;;;;;5067146;28;20200;-46
2022/08/04 06:53:15;;;;;;;4.13;3.85;;;25.00;88.40;;;;;;5062418;28;20198;-43
2022/08/04 06:55:46;;;;;;;4.75;3.42;;;25.10;88.30;;;;;;5066014;28;20291;-42
2022/08/04 06:58:16;;;;;;;3.10;2.90;;;25.20;88.30;;;;;;5065309;28;20284;-38
2022/08/04 07:00:46;;;;;;;4.57;3.33;;;25.20;88.30;;;;;;5065951;28;20235;-39
2022/08/04 07:03:15;;;;;;;4.07;3.78;;;25.30;88.40;;;;;;5065967;28;20190;-39
2022/08/04 07:05:43;;;;;;;4.75;4.18;;;25.40;88.50;;;;;;5063810;28;20197;-42
2022/08/04 07:08:10;;;;;;;4.68;3.83;;;25.40;88.20;;;;;;5064741;28;20194;-45
2022/08/04 07:10:39;;;;;;;5.43;3.63;;;25.50;88.10;;;;;;5067257;28;20208;-39
2022/08/04 07:13:08;;;;;;;5.18;3.58;;;25.60;88.00;;;;;;5064272;28;20680;-40
2022/08/04 07:15:38;;;;;;;4.32;3.78;;;25.70;87.90;;;;;;5065594;28;20224;-42
2022/08/04 07:18:06;;;;;;;4.40;4.00;;;25.70;87.40;;;;;;5066498;28;20220;-40
2022/08/04 07:20:33;;;;;;;6.07;4.07;;;25.80;87.20;;;;;;5065672;28;20194;-44
2022/08/04 07:23:02;;;;;;;5.30;3.65;;;25.90;87.20;;;;;;5064355;28;20336;-42
2022/08/04 07:25:29;;;;;;;5.25;4.28;;;25.90;87.00;;;;;;5065829;28;20520;-40
2022/08/04 07:27:56;;;;;;;6.60;3.90;;;26.00;86.80;;;;;;5066390;28;20203;-41
2022/08/04 07:30:25;;;;;;;3.75;3.45;;;26.10;86.50;;;;;;5063177;28;20280;-42
2022/08/04 07:32:54;;;;;;;8.43;3.97;;;26.20;86.40;;;;;;5066714;28;20280;-39
2022/08/04 07:35:23;;;;;;;4.40;4.00;;;26.30;86.50;;;;;;5066068;28;20189;-39
2022/08/04 07:37:50;;;;;;;5.18;4.38;;;26.40;85.90;;;;;;5068443;28;20292;-39
2022/08/04 07:40:17;;;;;;;5.53;3.83;;;26.40;85.40;;;;;;5063468;28;20240;-44
2022/08/04 07:42:45;;;;;;;3.35;3.15;;;26.50;85.10;;;;;;5065572;28;20519;-40
2022/08/04 07:45:12;;;;;;;4.20;3.67;;;26.60;85.00;;;;;;5063701;28;20292;-44
2022/08/04 07:47:39;;;;;;;8.18;3.50;;;26.70;85.10;;;;;;5068746;28;20708;-40
2022/08/04 07:50:11;;;;;;;6.22;4.00;;;26.80;85.00;;;;;;5069218;28;20193;-42
2022/08/04 07:52:39;;;;;;;4.45;3.80;;;26.90;84.90;;;;;;5067491;28;20197;-41
2022/08/04 07:55:08;;;;;;;4.85;4.18;;;26.90;84.60;;;;;;5067547;28;20213;-39
2022/08/04 07:57:35;;;;;;;4.50;4.10;;;27.00;84.50;;;;;;5065862;28;20290;-43
2022/08/04 08:00:03;;;;;;;4.20;3.80;;;27.10;84.10;;;;;;5063714;28;20889;-45
2022/08/04 08:02:39;;;;;;;4.45;4.03;;;27.20;83.60;;;;;;5064014;28;20275;-45
2022/08/04 08:05:10;;;;;;;4.63;3.60;;;27.30;83.20;;;;;;5064592;28;20208;-41
2022/08/04 08:07:37;;;;;;;3.50;3.30;;;27.40;82.70;;;;;;5066911;28;20217;-45
2022/08/04 08:10:05;;;;;;;3.83;3.38;;;27.50;82.40;;;;;;5064398;28;20259;-40
2022/08/04 08:12:33;;;;;;;3.85;3.53;;;27.50;82.10;;;;;;5064112;28;20581;-46
2022/08/04 08:15:00;;;;;;;3.80;3.58;;;27.60;81.90;;;;;;5062723;28;20734;-44
2022/08/04 08:17:27;;;;;;;3.70;3.40;;;27.70;81.70;;;;;;5066477;28;20210;-48
2022/08/04 08:19:54;;;;;;;4.25;3.75;;;27.80;81.00;;;;;;5063517;28;20297;-45
2022/08/04 08:22:23;;;;;;;3.20;3.00;;;27.90;80.10;;;;;;5065980;28;20208;-44
2022/08/04 08:24:50;;;;;;;4.35;3.95;;;27.90;79.50;;;;;;5064810;28;20221;-38
2022/08/04 08:27:18;;;;;;;4.18;3.75;;;28.10;79.60;;;;;;5065355;28;20212;-38
2022/08/04 08:29:45;;;;;;;3.90;3.50;;;28.10;78.00;;;;;;5065075;28;20193;-41
2022/08/04 08:32:13;;;;;;;3.78;3.47;;;28.30;77.80;;;;;;5065936;28;20207;-39
2022/08/04 08:34:41;;;;;;;4.13;3.53;;;28.30;77.00;;;;;;5063782;28;20198;-38
2022/08/04 08:37:15;;;;;;;3.88;3.55;;;28.40;75.90;;;;;;5063719;28;20225;-39
2022/08/04 08:39:52;;;;;;;3.70;3.50;;;28.50;75.40;;;;;;5065528;28;20668;-41
2022/08/04 08:42:46;;;;;;;3.47;3.17;;;28.60;75.30;;;;;;5066099;28;20197;-39
2022/08/04 08:45:41;;;;;;;3.97;3.38;;;28.60;75.20;;;;;;5063705;28;20479;-44
2022/08/04 08:48:33;;;;;;;3.20;3.00;;;28.70;74.90;;;;;;5067376;28;20276;-38
2022/08/04 08:51:18;;;;;;;2.88;2.70;;;28.80;73.90;;;;;;5067657;28;20318;-39
2022/08/04 08:54:21;;;;;;;4.18;3.10;;;29.00;73.30;;;;;;5066421;28;20624;-39
2022/08/04 08:57:00;;;;;;;2.53;2.33;;;29.00;72.60;;;;;;5055708;28;20209;-39
2022/08/04 08:59:53;;;;;;;7.78;4.80;;;29.10;72.20;;;;;;5064991;28;20189;-39
2022/08/04 09:03:06;;;;;;;4.50;4.03;;;29.20;71.50;;;;;;5068010;28;20264;-44
2022/08/04 09:05:54;;;;;;;3.63;3.40;;;29.30;70.30;;;;;;5065496;28;20201;-48
2022/08/04 09:08:39;;;;;;;6.90;3.42;;;29.40;69.00;;;;;;5064786;28;20464;-48
2022/08/04 09:11:12;;;;;;;3.40;3.20;;;29.50;68.60;;;;;;5065225;28;20235;-45
2022/08/04 09:13:45;;;;;;;3.67;3.08;;;29.60;68.90;;;;;;5065399;28;20193;-41
2022/08/04 09:16:19;;;;;;;3.08;2.88;;;29.60;68.60;;;;;;5064605;28;20197;-47
2022/08/04 09:18:53;;;;;;;3.97;3.40;;;29.70;68.40;;;;;;5064610;28;20681;-38
2022/08/04 09:21:30;;;;;;;62.47;10.55;;;29.80;67.50;;;;;;5063932;28;20201;-40
2022/08/04 09:24:19;;;;;;;51.45;10.07;;;29.80;66.60;;;;;;5063062;28;20232;-39
2022/08/04 09:26:50;;;;;;;7.40;5.25;;;29.90;65.50;;;;;;5064480;28;20276;-42
2022/08/04 09:29:27;;;;;;;15.05;4.80;;;30.00;65.40;;;;;;5063923;28;20518;-40
2022/08/04 09:32:00;;;;;;;3.70;3.50;;;30.10;64.70;;;;;;5065549;28;20622;-42
2022/08/04 09:34:48;;;;;;;3.22;3.03;;;30.10;64.80;;;;;;5065982;28;20683;-41
2022/08/04 09:37:25;;;;;;;2.60;2.50;;;30.20;64.90;;;;;;5063685;28;20681;-40
2022/08/04 09:40:04;;;;;;;2.30;2.20;;;30.30;64.80;;;;;;5063323;28;20227;-41
2022/08/04 09:42:41;;;;;;;3.50;2.25;;;30.30;64.80;;;;;;5062696;28;20680;-39
2022/08/04 09:45:17;;;;;;;13.98;5.57;;;30.30;64.40;;;;;;5064075;28;20205;-39
2022/08/04 09:47:50;;;;;;;9.35;5.15;;;30.40;63.60;;;;;;5068831;28;20204;-40
2022/08/04 09:50:33;;;;;;;4.88;3.45;;;30.40;63.40;;;;;;5067105;28;20565;-40
2022/08/04 09:53:13;;;;;;;3.42;3.13;;;30.50;63.00;;;;;;5065423;28;20221;-39
2022/08/04 09:55:52;;;;;;;3.25;3.05;;;30.60;63.10;;;;;;5069477;28;20193;-41
2022/08/04 09:58:39;;;;;;;3.47;3.20;;;30.60;62.70;;;;;;5068604;28;20244;-40
2022/08/04 10:01:11;;;;;;;3.22;2.97;;;30.70;61.80;;;;;;5067974;28;20204;-44
2022/08/04 10:03:41;;;;;;;3.47;3.28;;;30.70;62.00;;;;;;5066378;28;20225;-41
2022/08/04 10:06:25;;;;;;;2.80;2.53;;;30.80;61.40;;;;;;5067717;28;20185;-40
2022/08/04 10:09:16;;;;;;;3.13;2.92;;;30.90;62.00;;;;;;5068013;28;20186;-43
2022/08/04 10:12:00;;;;;;;2.95;2.72;;;30.90;60.90;;;;;;5069330;28;20189;-47
2022/08/04 10:14:38;;;;;;;3.00;2.80;;;31.00;60.50;;;;;;5066745;28;20272;-45
2022/08/04 10:17:20;;;;;;;3.15;2.85;;;31.10;59.80;;;;;;5067350;28;20205;-43
2022/08/04 10:20:03;;;;;;;3.00;2.80;;;31.10;59.40;;;;;;5067404;28;20703;-44
2022/08/04 10:22:37;;;;;;;3.78;3.47;;;31.20;59.20;;;;;;5070710;28;21183;-42
2022/08/04 10:25:17;;;;;;;3.95;3.17;;;31.20;58.90;;;;;;5066630;28;20229;-48
2022/08/04 10:27:48;;;;;;;4.05;3.75;;;31.30;58.60;;;;;;5065617;28;20201;-43
2022/08/04 10:30:18;;;;;;;3.90;3.50;;;31.30;58.40;;;;;;5063972;28;20726;-45
2022/08/04 10:32:52;;;;;;;3.47;3.28;;;31.40;58.30;;;;;;5069495;28;20272;-43
2022/08/04 10:35:22;;;;;;;3.00;2.78;;;31.40;58.30;;;;;;5064574;28;20611;-44
2022/08/04 10:38:01;;;;;;;2.45;2.35;;;31.50;58.00;;;;;;5068261;28;20688;-44
2022/08/04 10:40:41;;;;;;;4.05;3.58;;;31.50;56.40;;;;;;5063197;28;20276;-39
2022/08/04 10:43:22;;;;;;;2.90;2.70;;;31.50;56.20;;;;;;5062966;28;20259;-40
2022/08/04 10:45:52;;;;;;;3.78;3.05;;;31.60;56.10;;;;;;5064843;28;20185;-38
2022/08/04 10:48:30;;;;;;;9.65;3.00;;;31.60;56.30;;;;;;5063598;28;20268;-40
2022/08/04 10:51:04;;;;;;;4.10;3.10;;;31.60;56.40;;;;;;5080695;28;20665;-40
2022/08/04 10:53:34;;;;;;;3.00;2.65;;;31.70;56.60;;;;;;5066404;28;20276;-42
2022/08/04 10:56:05;;;;;;;6.13;3.22;;;31.70;56.60;;;;;;5066576;28;20281;-40
2022/08/04 10:58:38;;;;;;;12.98;2.95;;;31.80;56.80;;;;;;5066514;28;20201;-39
2022/08/04 11:01:14;;;;;;;3.50;3.15;;;31.70;56.40;;;;;;5066883;28;20657;-40
2022/08/04 11:03:49;;;;;;;3.63;3.28;;;31.80;56.30;;;;;;5065405;28;20202;-46
2022/08/04 11:06:17;;;;;;;9.80;4.60;;;31.80;56.70;;;;;;5067018;28;20203;-38
2022/08/04 11:08:51;;;;;;;9.40;4.53;;;31.80;57.00;;;;;;5063714;28;20646;-41
2022/08/04 11:11:26;;;;;;;4.82;3.20;;;31.90;56.80;;;;;;5066831;28;20242;-40
2022/08/04 11:14:02;;;;;;;3.33;3.08;;;32.00;56.70;;;;;;5063741;28;20722;-47
2022/08/04 11:16:35;;;;;;;4.45;3.05;;;32.00;56.70;;;;;;5070247;28;20296;-40
2022/08/04 11:19:15;;;;;;;3.22;3.03;;;32.00;56.40;;;;;;5062853;28;20241;-39
2022/08/04 11:21:47;;;;;;;6.47;3.72;;;32.10;56.60;;;;;;5065857;28;20213;-45
2022/08/04 11:24:19;;;;;;;7.25;3.60;;;32.10;56.60;;;;;;5063619;28;20229;-45
2022/08/04 11:26:49;;;;;;;3.40;3.08;;;32.10;56.90;;;;;;5065574;28;20217;-47
2022/08/04 11:29:25;;;;;;;3.63;3.30;;;32.10;55.70;;;;;;5060708;28;20193;-39
2022/08/04 11:31:57;;;;;;;4.93;2.92;;;32.10;55.70;;;;;;5064085;28;20196;-39
2022/08/04 11:34:26;;;;;;;3.13;2.85;;;32.20;55.90;;;;;;5064563;28;20197;-41
2022/08/04 11:37:02;;;;;;;2.40;2.30;;;32.20;55.50;;;;;;5063572;28;20204;-45
2022/08/04 11:39:35;;;;;;;2.97;2.78;;;32.20;55.60;;;;;;5063607;28;20286;-40
2022/08/04 11:42:10;;;;;;;3.05;2.85;;;32.20;55.40;;;;;;5065383;28;20272;-45
2022/08/04 11:44:43;;;;;;;2.95;2.80;;;32.30;55.30;;;;;;5063451;28;20655;-44
2022/08/04 11:47:20;;;;;;;3.03;2.78;;;32.30;55.50;;;;;;5066770;28;20617;-44
2022/08/04 11:49:55;;;;;;;3.67;2.88;;;32.30;55.80;;;;;;5068349;28;20495;-43
2022/08/04 11:52:24;;;;;;;3.03;2.85;;;32.40;55.50;;;;;;5067272;28;20221;-42
2022/08/04 11:54:51;;;;;;;3.28;3.03;;;32.40;54.90;;;;;;5068450;28;20204;-44
2022/08/04 11:57:19;;;;;;;7.13;3.03;;;32.50;54.50;;;;;;5067164;28;20221;-44
2022/08/04 11:59:49;;;;;;;4.55;3.33;;;32.50;54.10;;;;;;5063631;28;20729;-43
2022/08/04 12:02:39;;;;;;;4.28;2.85;;;32.50;53.90;;;;;;5068307;28;20273;-43
2022/08/04 12:05:10;;;;;;;3.00;2.80;;;32.50;53.60;;;;;;5055012;28;20626;-38
2022/08/04 12:07:44;;;;;;;6.88;3.28;;;32.50;53.40;;;;;;5065171;28;20297;-40
2022/08/04 12:10:33;;;;;;;59.97;6.63;;;32.50;53.80;;;;;;5066337;28;20188;-44
2022/08/04 12:13:20;;;;;;;55.10;7.97;;;32.50;53.50;;;;;;5065028;28;20542;-45
2022/08/04 12:15:57;;;;;;;24.48;4.47;;;32.60;53.60;;;;;;5066662;28;20278;-42
2022/08/04 12:18:30;;;;;;;9.85;3.72;;;32.70;53.70;;;;;;5067064;28;20266;-38
2022/08/04 12:21:01;;;;;;;3.63;2.88;;;32.70;53.50;;;;;;5068341;28;20629;-44
2022/08/04 12:23:33;;;;;;;3.25;2.97;;;32.70;53.20;;;;;;5065903;28;20299;-49
2022/08/04 12:26:06;;;;;;;2.78;2.67;;;32.70;53.40;;;;;;5068697;28;20255;-47
2022/08/04 12:28:36;;;;;;;2.10;2.00;;;32.70;53.60;;;;;;5060747;28;20220;-46
2022/08/04 12:31:10;;;;;;;5.45;3.13;;;32.80;53.60;;;;;;5067067;28;20302;-44
2022/08/04 12:33:42;;;;;;;2.65;2.55;;;32.90;53.30;;;;;;5066021;28;20220;-48
2022/08/04 12:36:21;;;;;;;3.80;3.60;;;32.90;52.90;;;;;;5067820;28;20273;-43
2022/08/04 12:38:58;;;;;;;4.22;3.67;;;32.90;52.80;;;;;;5063974;28;20717;-48
2022/08/04 12:41:32;;;;;;;8.30;3.63;;;32.90;52.90;;;;;;5080834;28;20657;-49
2022/08/04 12:44:06;;;;;;;3.15;2.85;;;32.90;53.20;;;;;;5063060;28;20189;-48
2022/08/04 12:46:34;;;;;;;2.92;2.65;;;32.90;52.70;;;;;;5068938;28;20255;-48
2022/08/04 12:49:03;;;;;;;9.45;3.35;;;32.90;52.70;;;;;;5065690;28;20217;-45
2022/08/04 12:51:37;;;;;;;3.83;2.95;;;33.00;52.60;;;;;;5065271;28;20314;-46
2022/08/04 12:54:06;;;;;;;3.35;3.05;;;32.90;51.90;;;;;;5064679;28;20201;-45
2022/08/04 12:56:34;;;;;;;2.60;2.40;;;32.90;51.60;;;;;;5056279;28;20194;-41
2022/08/04 12:59:03;;;;;;;3.72;2.72;;;32.90;51.70;;;;;;5060116;28;20577;-42
2022/08/04 13:01:31;;;;;;;3.08;2.78;;;32.90;51.80;;;;;;5062939;28;20739;-46
2022/08/04 13:04:02;;;;;;;4.63;2.60;;;32.90;52.40;;;;;;5063375;28;20296;-46
2022/08/04 13:06:33;;;;;;;3.67;2.85;;;32.90;51.30;;;;;;5063157;28;20193;-44
2022/08/04 13:09:07;;;;;;;3.85;2.60;;;32.90;51.40;;;;;;5062554;28;20628;-45
2022/08/04 13:11:40;;;;;;;7.28;3.33;;;32.90;51.50;;;;;;5065593;28;20197;-45
2022/08/04 13:14:09;;;;;;;3.25;3.05;;;33.00;51.50;;;;;;5062723;28;20280;-45
2022/08/04 13:16:36;;;;;;;3.63;3.30;;;33.00;51.60;;;;;;5066368;28;20193;-43
2022/08/04 13:19:08;;;;;;;6.65;3.67;;;33.00;51.50;;;;;;5065959;28;20684;-41
2022/08/04 13:21:42;;;;;;;3.30;3.00;;;33.00;51.40;;;;;;5070608;28;20228;-47
2022/08/04 13:24:13;;;;;;;6.78;3.20;;;33.00;51.40;;;;;;5065511;28;20232;-45
2022/08/04 13:26:55;;;;;;;5.40;3.20;;;33.00;51.50;;;;;;5072254;28;20269;-45
2022/08/04 13:29:23;;;;;;;4.40;3.40;;;33.00;51.00;;;;;;5068192;28;20284;-41
2022/08/04 13:31:52;;;;;;;8.50;3.47;;;33.00;51.10;;;;;;5069278;28;20208;-41
2022/08/04 13:34:21;;;;;;;6.43;3.60;;;33.00;51.30;;;;;;5066687;28;20198;-43